LOWIEDFH

Guest
Details From LOWI - Innsbruck Kranebitten
To EDFH - Frankfurt Hahn
Flight Number -
Tags Generated
Created
Modified
Stats Distance 228 nm / 423 km
Max Altitude 0 ft / 0 m
Waypoints 3
Social Downloads 2
Likes 0
Share VATSIM

Download

Looking for another format? Having issues loading an existing format? Contact us
Advertisement - Login to hide

Notes

Generated

Route

LOWI KIR EDFH

ID Type Via Altitude Latitude Longitude Leg Dist Tot Dist Heading (true) Name
O LOWI APT - 0 ft / 0 m 47.25883˚ 11.33091˚ - 0 nm - -
KIR VOR - 0 ft / 0 m 49.85024˚ 7.36958˚ 221 nm 221 nm 316° / 313° KIRN VORTAC
O EDFH APT - 0 ft / 0 m 49.93139˚ 7.24688˚ 6 nm 228 nm 316° / 316° -

Altitude Profile

Advertisement - Login to hide

Weather


0- 5 10 15 20 25 30 35+ Temperature / ° C

Clouds and Precipitation
Forecast for 2017-12-18 00:00 UTC. Updated 43 minutes ago

Ground ~20,000 ft ~40,000 ft Winds

LOWI

Details ICAO LOWI (INN)
Name Innsbruck Kranebitten
Region Austria
Timezone Europe/Vienna (UTC+1.0)
Stats Elevation 1,906 ft / 581 m (AMSL)
Location 47.260226° 11.343967°
Runways 1
Magnetic Variation 3.020° E

METAR

LOWI 172150Z VRB01KT 9999 SCT006 BKN075 M02/M03 Q1025 R88/////// NOSIG

Decode

TAF

TAF TAF LOWI 171715Z 1718/1818 VRB02KT 9999 FEW007 SCT015 BKN070 TX01/1812Z TNM04/1807Z TEMPO 1720/1806 3000 -SN SCT005 BKN010 BECMG 1808/1810 8000 -SN SCT010 BKN040 TEMPO 1811/1816 3000 SN SCT005 BKN013

Decode

Departure Runways

ID Width Length Bearing (true) Bearing (mag) Surface Threshold Offset Overrun Length
08 148 ft / 45 m 6,545 ft / 1,995 m 81.02° 78.00° Asphalt 338 ft / 103 m 0 ft / 0 m
26 148 ft / 45 m 6,545 ft / 1,995 m 261.04° 258.02° Asphalt 0 ft / 0 m 0 ft / 0 m

EDFH

Details ICAO EDFH (HHN)
Name Frankfurt Hahn
Region Germany - Civil
Timezone Europe/Berlin (UTC+1.0)
Stats Elevation 1,649 ft / 503 m (AMSL)
Location 49.945808° 7.261082°
Runways 1
Magnetic Variation 1.983° E

METAR

EDFH 172150Z 23007KT 200V270 9999 BKN005 M01/M01 Q1023

Decode

TAF

TAF TAF EDFH 171700Z 1718/1818 26010KT 9999 SCT004 BKN015 TEMPO 1718/1723 BKN004 BECMG 1723/1801 4000 -SN BKN006 TEMPO 1801/1809 2000 SN OVC004 PROB30 TEMPO 1802/1806 0500 +SN VV001 BECMG 1809/1812 32005KT TEMPO 1809/1818 2000 -RASN BKN003

Decode

Destination Runways

ID Width Length Bearing (true) Bearing (mag) Surface Threshold Offset Overrun Length
03 148 ft / 45 m 12,457 ft / 3,797 m 32.37° 30.39° Asphalt 3,461 ft / 1,055 m 0 ft / 0 m
21 148 ft / 45 m 12,457 ft / 3,797 m 212.39° 210.41° Asphalt 984 ft / 300 m 0 ft / 0 m

Approach Navaids

Runway Type Ident Frequency Range Bearing (true) Bearing (mag) Slope Elevation
03 Localiser IHAE 109.30 MHz 18 nm / 33 km 32.39° 30.41° - 1,595 ft / 486 m (AMSL)
03 Glidescope IHAE 109.30 MHz 10 nm / 19 km 32.39° 30.40° 3.00° 1,648 ft / 502 m (AMSL)
21 Localiser IHAW 111.30 MHz 18 nm / 33 km 212.38° 210.40° - 1,648 ft / 502 m (AMSL)
21 Glidescope IHAW 111.30 MHz 10 nm / 19 km 212.39° 210.41° 3.00° 1,600 ft / 488 m (AMSL)

Popular Alternatives